Time;durP1;ratioP1;P1;durP2;ratioP2;P2;SDS_P1;SDS_P2;PMS_P1;PMS_P2;Temp;Humidity;BMP_temperature;BMP_pressure;BME280_temperature;BME280_humidity;BME280_pressure;Samples;Min_cycle;Max_cycle;Signal;HPM_P1;HPM_P2
2021/07/16 00:00:35;;;;;;;;;;;;;;;;;;;;;
2021/07/16 00:07:17;;;;;;;14.73;11.60;;;;;;;20.35;82.90;98480.89;261825;1093;22947;-74
2021/07/16 00:20:48;;;;;;;7.07;4.40;;;;;;;19.57;81.52;98486.34;261753;1093;22798;-72
2021/07/16 00:27:38;;;;;;;4.50;4.00;;;;;;;18.95;82.45;98478.72;262017;1093;26332;-72
2021/07/16 00:34:32;;;;;;;9.05;5.80;;;;;;;18.67;83.55;98465.22;261907;1092;22855;-71
2021/07/16 00:41:43;;;;;;;8.85;6.15;;;;;;;18.56;84.10;98485.86;261678;1093;22889;-73
2021/07/16 00:48:23;;;;;;;16.50;10.90;;;;;;;18.68;85.37;98487.70;261686;1093;22894;-74
2021/07/16 01:01:51;;;;;;;;;;;;;;;;;;;;;
2021/07/16 01:08:48;;;;;;;9.93;8.20;;;;;;;18.26;84.50;98476.20;261544;1092;22847;-73
2021/07/16 01:15:36;;;;;;;;;;;;;;;;;;;;;
2021/07/16 01:22:04;;;;;;;5.00;3.20;;;;;;;17.98;84.95;98385.98;261920;1093;22826;-73
2021/07/16 01:28:05;;;;;;;4.28;3.78;;;;;;;18.00;85.29;98410.83;261826;1092;22795;-72
2021/07/16 01:34:29;;;;;;;6.35;4.95;;;;;;;17.95;85.27;98412.65;261855;1093;26008;-74
2021/07/16 01:55:15;;;;;;;14.87;10.70;;;;;;;18.22;87.77;98409.47;261927;1092;23564;-74
2021/07/16 02:02:20;;;;;;;12.25;10.95;;;;;;;18.35;88.12;98402.05;261680;1092;23515;-75
2021/07/16 02:15:46;;;;;;;;;;;;;;;;;;;;;
2021/07/16 02:29:30;;;;;;;16.30;14.50;;;;;;;18.72;89.47;98394.42;262004;1093;22808;-74
2021/07/16 02:36:24;;;;;;;;;;;;;;;;;;;;;
2021/07/16 02:43:28;;;;;;;;;;;;;;;;;;;;;
2021/07/16 03:18:02;;;;;;;;;;;;;;;;;;;;;
2021/07/16 03:24:23;;;;;;;;;;;;;;;;;;;;;
2021/07/16 03:38:32;;;;;;;24.10;21.03;;;;;;;19.57;91.31;98461.89;261610;1093;26382;-72
2021/07/16 04:13:31;;;;;;;;;;;;;;;;;;;;;
2021/07/16 04:20:30;;;;;;;;;;;;;;;;;;;;;
2021/07/16 04:34:49;;;;;;;31.50;26.37;;;;;;;19.39;90.93;98472.36;261475;1093;22813;-73
2021/07/16 05:02:06;;;;;;;37.57;25.80;;;;;;;19.53;91.40;98488.19;261679;1093;22841;-71
2021/07/16 05:22:38;;;;;;;41.70;27.10;;;;;;;19.91;92.64;98500.27;261704;1093;22798;-73
2021/07/16 06:39:49;;;;;;;;;;;;;;;;;;;;;
2021/07/16 06:46:46;;;;;;;27.55;21.55;;;;;;;21.90;88.75;98572.48;262594;1093;25865;-71
2021/07/16 07:15:04;;;;;;;20.90;18.70;;;;;;;23.45;86.77;98567.86;262169;1093;22822;-73
2021/07/16 08:11:30;;;;;;;19.18;16.88;;;;;;;24.83;80.14;98579.06;264262;1091;27274;-73
2021/07/16 08:53:28;;;;;;;18.63;16.68;;;;;;;26.32;76.00;98605.20;262510;1093;22807;-71
2021/07/16 09:00:35;;;;;;;18.88;16.98;;;;;;;26.19;74.99;98601.32;261964;1093;22772;-71
2021/07/16 09:36:13;;;;;;;17.95;16.15;;;;;;;26.94;73.93;98597.44;261563;1092;22828;-70
2021/07/16 09:42:58;;;;;;;16.73;14.98;;;;;;;27.00;73.48;98604.05;261535;1093;27118;-71
2021/07/16 10:03:19;;;;;;;;;;;;;;;;;;;;;
2021/07/16 10:10:38;;;;;;;17.93;14.33;;;;;;;26.24;71.85;98592.68;261953;1093;23420;-70
2021/07/16 10:17:08;;;;;;;14.38;12.90;;;;;;;26.27;72.69;98594.63;265133;1093;22827;-71
2021/07/16 10:30:06;;;;;;;16.25;13.23;;;;;;;26.62;71.46;98595.63;262453;1092;22789;-72
2021/07/16 10:37:24;;;;;;;14.77;13.17;;;;;;;27.38;72.01;98597.91;262608;1093;22777;-70
2021/07/16 10:44:28;;;;;;;13.95;12.33;;;;;;;27.67;69.19;98606.68;261893;1093;22850;-72
2021/07/16 10:51:20;;;;;;;;;;;;;;;;;;;;;
2021/07/16 10:58:16;;;;;;;13.75;12.43;;;;;;;27.77;68.44;98608.56;262305;1093;23947;-71
2021/07/16 11:05:32;;;;;;;14.05;11.80;;;;;;;28.00;67.78;98596.16;262113;1092;25980;-72
2021/07/16 11:12:36;;;;;;;13.88;12.50;;;;;;;27.94;66.97;98597.75;261462;1092;22829;-72
2021/07/16 11:19:46;;;;;;;14.23;12.93;;;;;;;27.93;66.16;98588.72;261784;1093;22811;-72
2021/07/16 11:26:44;;;;;;;13.95;12.55;;;;;;;28.15;65.97;98594.03;262224;1092;22849;-71
2021/07/16 11:33:29;;;;;;;;;;;;;;;;;;;;;
2021/07/16 11:40:25;;;;;;;13.68;12.03;;;;;;;29.00;63.86;98580.30;262046;1092;24372;-71
2021/07/16 11:47:19;;;;;;;15.70;12.28;;;;;;;29.25;63.43;98578.34;262016;1092;22833;-71
2021/07/16 11:54:14;;;;;;;;;;;;;;;;;;;;;
2021/07/16 12:01:12;;;;;;;11.65;10.55;;;;;;;29.09;61.46;98565.97;261678;1092;22814;-71
2021/07/16 12:08:16;;;;;;;14.78;12.23;;;;;;;28.84;60.10;98578.16;262060;1093;24374;-71
2021/07/16 12:21:09;;;;;;;11.40;10.20;;;;;;;29.13;60.11;98588.75;262001;1091;22794;-72
2021/07/16 12:41:18;;;;;;;13.25;11.90;;;;;;;29.62;59.48;98563.51;261769;1092;22827;-71
2021/07/16 12:47:19;;;;;;;17.13;15.33;;;;;;;29.70;58.68;98566.90;261826;1093;22805;-71
2021/07/16 12:53:32;;;;;;;;;;;;;;;;;;;;;
2021/07/16 13:06:30;;;;;;;;;;;;;;;;;;;;;
2021/07/16 13:12:33;;;;;;;12.90;11.60;;;;;;;29.06;56.85;98572.32;261946;1092;22878;-71
2021/07/16 13:19:07;;;;;;;13.00;11.73;;;;;;;28.48;58.63;98569.59;262141;1092;22806;-71
2021/07/16 13:24:42;;;;;;;13.20;11.73;;;;;;;27.85;58.96;98586.47;265005;1092;22966;-71
2021/07/16 13:31:01;;;;;;;12.10;11.00;;;;;;;27.42;60.81;98576.66;262214;1092;22745;-71
2021/07/16 13:43:36;;;;;;;20.88;18.70;;;;;;;26.61;63.95;98599.55;262078;1093;23095;-70
2021/07/16 13:48:49;;;;;;;14.70;13.25;;;;;;;26.29;64.44;98598.54;262113;1093;22825;-70
2021/07/16 13:54:01;;;;;;;16.78;13.90;;;;;;;26.02;65.38;98595.48;262081;1093;22832;-70
2021/07/16 14:00:04;;;;;;;14.90;13.33;;;;;;;25.95;66.39;98590.00;262106;1093;22808;-71
2021/07/16 14:06:07;;;;;;;14.85;13.28;;;;;;;25.93;66.40;98600.59;262330;1092;22799;-71
2021/07/16 14:11:44;;;;;;;16.65;14.10;;;;;;;25.97;67.32;98587.66;261996;1093;22848;-70
2021/07/16 14:24:25;;;;;;;20.08;14.45;;;;;;;26.17;68.09;98585.25;261759;1092;22813;-71
2021/07/16 14:30:19;;;;;;;17.50;14.30;;;;;;;26.23;68.50;98580.93;261877;1093;27193;-71
2021/07/16 14:37:07;;;;;;;;;;;;;;;;;;;;;
2021/07/16 14:43:54;;;;;;;15.13;13.15;;;;;;;26.35;68.42;98554.97;261808;1093;22803;-71
2021/07/16 14:56:29;;;;;;;12.33;10.97;;;;;;;26.39;68.50;98544.76;261774;1092;22898;-72
2021/07/16 15:16:31;;;;;;;;;;;;;;;;;;;;;
2021/07/16 15:22:01;;;;;;;11.10;10.03;;;;;;;26.51;67.60;98542.73;261701;1093;23381;-71
2021/07/16 15:27:50;;;;;;;12.98;10.30;;;;;;;26.52;67.19;98545.07;262253;1092;25916;-70
2021/07/16 15:35:00;;;;;;;12.30;10.95;;;;;;;26.46;67.29;98544.72;261850;1092;25781;-71
2021/07/16 15:42:00;;;;;;;12.35;10.93;;;;;;;26.40;67.08;98546.33;261834;1093;22879;-71
2021/07/16 15:48:10;;;;;;;;;;;;;;;;;;;;;
2021/07/16 15:55:07;;;;;;;;;;;;;;;;;;;;;
2021/07/16 16:01:30;;;;;;;;;;;;;;;;;;;;;
2021/07/16 16:07:50;;;;;;;11.45;10.30;;;;;;;26.77;66.54;98544.94;261812;1093;24043;-70
2021/07/16 16:13:29;;;;;;;12.00;10.73;;;;;;;26.89;66.44;98540.14;261744;1093;25858;-71
2021/07/16 16:19:38;;;;;;;11.38;10.18;;;;;;;27.12;66.13;98534.85;261772;1093;22798;-71
2021/07/16 16:25:43;;;;;;;11.35;9.78;;;;;;;27.45;66.30;98537.33;261845;1093;23587;-71
2021/07/16 16:31:47;;;;;;;;;;;;;;;;;;;;;
2021/07/16 16:37:33;;;;;;;14.93;10.93;;;;;;;27.65;64.93;98545.79;261868;1093;22780;-71
2021/07/16 16:42:54;;;;;;;11.30;10.15;;;;;;;27.61;65.15;98550.55;261837;1093;22908;-71
2021/07/16 16:48:43;;;;;;;11.58;9.80;;;;;;;27.59;64.94;98548.20;261846;1093;22960;-70
2021/07/16 16:55:27;;;;;;;11.18;9.98;;;;;;;27.51;65.00;98543.16;261675;1093;22891;-72
2021/07/16 17:01:37;;;;;;;;;;;;;;;;;;;;;
2021/07/16 17:08:17;;;;;;;13.18;10.08;;;;;;;27.18;64.95;98539.92;261973;1093;25970;-71
2021/07/16 17:15:13;;;;;;;;;;;;;;;;;;;;;
2021/07/16 17:21:54;;;;;;;13.00;10.70;;;;;;;27.01;64.93;98567.14;261648;1093;22832;-70
2021/07/16 17:28:52;;;;;;;;;;;;;;;;;;;;;
2021/07/16 17:47:59;;;;;;;11.05;9.95;;;;;;;26.35;64.83;98573.42;261721;1093;25964;-71
2021/07/16 17:53:36;;;;;;;11.55;10.35;;;;;;;26.17;64.95;98577.02;261834;1092;26948;-70
2021/07/16 17:59:41;;;;;;;12.33;10.23;;;;;;;25.97;64.96;98573.93;261684;1093;22890;-71
2021/07/16 18:05:15;;;;;;;11.55;10.10;;;;;;;25.77;65.73;98568.89;261889;1093;25999;-70
2021/07/16 18:10:44;;;;;;;;;;;;;;;;;;;;;
2021/07/16 18:15:57;;;;;;;12.05;10.75;;;;;;;25.38;66.52;98575.22;261830;1093;22896;-70
2021/07/16 18:21:51;;;;;;;;;;;;;;;;;;;;;
2021/07/16 18:28:19;;;;;;;15.55;10.85;;;;;;;24.88;67.44;98586.14;261655;1093;22821;-71
2021/07/16 18:33:54;;;;;;;11.88;10.68;;;;;;;24.67;67.99;98581.41;261843;1093;22889;-70
2021/07/16 18:39:43;;;;;;;15.75;11.90;;;;;;;24.49;68.55;98584.84;261795;1093;22875;-71
2021/07/16 18:45:34;;;;;;;12.13;10.65;;;;;;;24.24;68.85;98590.22;261885;1093;22808;-72
2021/07/16 18:51:38;;;;;;;12.13;10.63;;;;;;;23.98;69.24;98603.02;262081;1093;22819;-70
2021/07/16 18:58:28;;;;;;;14.28;11.75;;;;;;;23.72;69.72;98604.77;261761;1093;22947;-70
2021/07/16 19:04:20;;;;;;;12.73;10.93;;;;;;;23.56;70.37;98610.53;261785;1093;24489;-70
2021/07/16 19:10:04;;;;;;;;;;;;;;;;;;;;;
2021/07/16 19:16:48;;;;;;;10.87;9.77;;;;;;;23.25;70.73;98617.30;261893;1092;22853;-70
2021/07/16 19:23:29;;;;;;;12.50;10.07;;;;;;;23.11;71.23;98623.38;261765;1092;22806;-71
2021/07/16 19:30:40;;;;;;;12.48;10.65;;;;;;;23.02;72.05;98640.09;261639;1093;26425;-71
2021/07/16 19:37:30;;;;;;;;;;;;;;;;;;;;;
2021/07/16 19:50:00;;;;;;;11.70;10.50;;;;;;;22.77;72.86;98641.78;261735;1093;22820;-70
2021/07/16 19:56:39;;;;;;;12.73;9.95;;;;;;;22.62;72.18;98643.55;260872;1092;22833;-71
2021/07/16 20:03:14;;;;;;;11.95;9.88;;;;;;;22.49;73.08;98643.02;261805;1093;22838;-70
2021/07/16 20:09:42;;;;;;;14.45;11.43;;;;;;;22.44;73.28;98648.80;261672;1093;22822;-71
2021/07/16 20:22:38;;;;;;;13.08;10.75;;;;;;;22.24;73.93;98637.99;260756;1093;22850;-73
2021/07/16 20:29:32;;;;;;;11.87;10.07;;;;;;;22.14;74.47;98633.19;262079;1093;22886;-71
2021/07/16 20:36:08;;;;;;;;;;;;;;;;;;;;;
2021/07/16 20:42:56;;;;;;;15.05;11.88;;;;;;;21.99;75.03;98643.11;261076;1093;22777;-71
2021/07/16 20:49:23;;;;;;;14.18;11.18;;;;;;;21.96;75.23;98627.48;261636;1093;22820;-69
2021/07/16 21:02:01;;;;;;;;;;;;;;;;;;;;;
2021/07/16 21:09:06;;;;;;;;;;;;;;;;;;;;;
2021/07/16 21:15:43;;;;;;;16.83;12.85;;;;;;;21.69;76.61;98632.95;261652;1093;23359;-70
2021/07/16 21:36:14;;;;;;;13.23;11.53;;;;;;;21.57;77.82;98636.64;260659;1093;26009;-71
2021/07/16 21:43:07;;;;;;;13.00;10.80;;;;;;;21.58;78.49;98643.67;260924;1093;22846;-71
2021/07/16 21:49:36;;;;;;;13.35;11.90;;;;;;;21.59;78.42;98645.26;261784;1093;22891;-71
2021/07/16 22:08:35;;;;;;;14.43;11.05;;;;;;;21.46;79.28;98652.81;262021;1093;22828;-70
2021/07/16 22:21:56;;;;;;;15.13;11.13;;;;;;;21.46;79.31;98668.36;261839;1093;24493;-70
2021/07/16 22:28:02;;;;;;;13.13;11.43;;;;;;;21.42;79.50;98665.59;261079;1093;26313;-70
2021/07/16 22:35:14;;;;;;;;;;;;;;;;;;;;;
2021/07/16 22:42:33;;;;;;;13.83;12.03;;;;;;;21.22;79.91;98653.94;261798;1093;22781;-70
2021/07/16 22:48:43;;;;;;;;;;;;;;;21.05;79.74;98644.31;261823;1093;22825;-70
2021/07/16 22:55:06;;;;;;;;;;;;;;;20.95;80.17;98639.47;261795;1093;21467;-70
2021/07/16 23:16:04;;;;;;;;;;;;;;;;;;;;;
2021/07/16 23:23:10;;;;;;;;;;;;;;;;;;;;;
2021/07/16 23:43:43;;;;;;;14.03;12.00;;;;;;;;;;260924;1092;22822;-70
2021/07/16 23:50:26;;;;;;;;;;;;;;;;;;;;;
2021/07/16 23:57:31;;;;;;;14.50;13.00;;;;;;;20.60;82.31;98604.95;260811;1093;22802;-70
